createdAt,value
2017-10-11T00:01:27.285Z,14.00
2017-10-11T00:03:57.770Z,14.10
2017-10-11T00:06:25.322Z,14.10
2017-10-11T00:08:52.846Z,14.10
2017-10-11T00:11:21.161Z,14.20
2017-10-11T00:13:48.686Z,14.20
2017-10-11T00:16:16.993Z,14.20
2017-10-11T00:18:44.513Z,14.10
2017-10-11T00:21:12.029Z,14.20
2017-10-11T00:23:39.588Z,14.20
2017-10-11T00:26:07.104Z,14.30
2017-10-11T00:28:34.650Z,14.20
2017-10-11T00:31:02.169Z,14.20
2017-10-11T00:33:29.700Z,14.30
2017-10-11T00:35:57.984Z,14.30
2017-10-11T00:38:26.283Z,14.40
2017-10-11T00:40:53.805Z,14.40
2017-10-11T00:43:22.101Z,14.20
2017-10-11T00:45:49.621Z,14.30
2017-10-11T00:48:17.157Z,14.30
2017-10-11T00:50:44.680Z,14.20
2017-10-11T00:53:12.977Z,14.30
2017-10-11T00:55:40.489Z,14.20
2017-10-11T00:58:08.797Z,14.30
2017-10-11T01:00:36.323Z,14.30
2017-10-11T01:03:03.845Z,14.30
2017-10-11T01:05:32.150Z,14.30
2017-10-11T01:07:59.672Z,14.20
2017-10-11T01:10:27.200Z,14.30
2017-10-11T01:12:55.481Z,14.30
2017-10-11T01:15:23.795Z,14.20
2017-10-11T01:17:51.323Z,14.20
2017-10-11T01:20:18.853Z,14.20
2017-10-11T01:22:46.373Z,14.20
2017-10-11T01:25:13.904Z,14.20
2017-10-11T01:27:41.429Z,14.30
2017-10-11T01:30:08.967Z,14.20
2017-10-11T01:32:36.486Z,14.20
2017-10-11T01:35:04.021Z,14.30
2017-10-11T01:37:32.309Z,14.30
2017-10-11T01:40:00.588Z,14.30
2017-10-11T01:42:28.885Z,14.30
2017-10-11T01:44:56.398Z,14.30
2017-10-11T01:47:23.941Z,14.30
2017-10-11T01:49:51.452Z,14.30
2017-10-11T01:52:19.754Z,14.30
2017-10-11T01:54:47.272Z,14.30
2017-10-11T01:57:15.575Z,14.30
2017-10-11T01:59:43.093Z,14.30
2017-10-11T02:02:10.624Z,14.30
2017-10-11T02:04:38.137Z,14.30
2017-10-11T02:07:06.436Z,14.30
2017-10-11T02:09:33.962Z,14.30
2017-10-11T02:12:02.282Z,14.20
2017-10-11T02:14:29.800Z,14.20
2017-10-11T02:16:58.084Z,14.30
2017-10-11T02:19:26.380Z,14.20
2017-10-11T02:21:53.901Z,14.20
2017-10-11T02:24:21.439Z,14.20
2017-10-11T02:26:48.966Z,14.10
2017-10-11T02:29:16.501Z,14.10
2017-10-11T02:31:44.786Z,14.10
2017-10-11T02:36:42.352Z,14.10
2017-10-11T03:16:23.730Z,13.80
2017-10-11T03:18:51.249Z,13.80
2017-10-11T03:21:18.780Z,13.80
2017-10-11T03:23:46.306Z,13.70
2017-10-11T03:26:13.841Z,13.90
2017-10-11T03:28:42.120Z,13.70
2017-10-11T03:31:10.423Z,13.70
2017-10-11T03:33:37.940Z,13.70
2017-10-11T03:36:05.473Z,13.70
2017-10-11T03:38:32.988Z,13.70
2017-10-11T03:41:00.513Z,13.80
2017-10-11T03:43:28.048Z,13.80
2017-10-11T03:45:55.565Z,13.70
2017-10-11T03:48:23.112Z,13.80
2017-10-11T03:50:51.396Z,13.80
2017-10-11T03:53:19.701Z,13.70
2017-10-11T03:55:47.214Z,13.70
2017-10-11T03:58:14.767Z,13.70
2017-10-11T04:00:42.285Z,13.80
2017-10-11T04:03:09.825Z,13.80
2017-10-11T04:05:37.340Z,13.80
2017-10-11T04:08:04.905Z,13.70
2017-10-11T04:10:32.442Z,13.70
2017-10-11T04:12:59.985Z,13.70
2017-10-11T04:15:27.501Z,13.70
2017-10-11T04:17:55.789Z,13.70
2017-10-11T04:20:24.093Z,13.60
2017-10-11T04:22:51.608Z,13.60
2017-10-11T04:25:19.137Z,13.70
2017-10-11T04:27:46.656Z,13.70
2017-10-11T04:30:14.188Z,13.70
2017-10-11T04:32:41.705Z,13.80
2017-10-11T04:35:09.238Z,13.80
2017-10-11T04:37:36.752Z,13.80
2017-10-11T04:40:04.286Z,13.70
2017-10-11T04:42:31.808Z,13.80
2017-10-11T04:45:00.106Z,13.80
2017-10-11T04:47:27.629Z,13.80
2017-10-11T04:49:55.924Z,13.70
2017-10-11T04:52:23.445Z,13.70
2017-10-11T04:54:50.966Z,13.70
2017-10-11T04:57:18.503Z,13.80
2017-10-11T04:59:46.021Z,13.80
2017-10-11T05:02:13.643Z,13.60
2017-10-11T05:04:41.168Z,13.70
2017-10-11T05:07:09.474Z,13.70
2017-10-11T05:09:36.998Z,13.70
2017-10-11T05:12:05.301Z,13.70
2017-10-11T05:14:32.826Z,13.70
2017-10-11T05:17:00.357Z,13.70
2017-10-11T05:19:27.868Z,13.80
2017-10-11T05:21:56.170Z,13.60
2017-10-11T05:24:23.693Z,13.60
2017-10-11T05:26:51.998Z,13.70
2017-10-11T05:29:19.624Z,13.70
2017-10-11T05:31:47.186Z,13.80
2017-10-11T05:34:14.725Z,13.70
2017-10-11T10:12:07.527Z,16.50
2017-10-11T10:14:35.068Z,16.40
